Aviation Digital Data Service (ADDS)

Output produced by METARs form (0455 UTC 26 August 2016)
found at http://aviationweather.gov/adds/metars/
 
KTOL 252342Z 2600/2624 26008KT P6SM SCT040 
     FM260300 28005KT P6SM BKN100 
     FM261000 30003KT P6SM SCT250 
     FM261500 26005KT P6SM SKC